
Distance (Route):
Temperature : -28.5°C
Humidity : 4.3%
Pressure : 360.3hPa| Receiver | Date | Latitude | Longitude | Direction | Speed | Altitude | Climb | Temperature | Humidity | Pressure | Voltage | Killtimer | Uptime | BKT | XDATA |
|---|---|---|---|---|---|---|---|---|---|---|---|---|---|---|---|
| LZ4TU-5 | 2026-09-02 00:59:04 | 46.22307 | 21.14014 | 98° | 64km/h | 8281m | -11.3m/s | -28.5°C | 4.3% | 360.3hPa | 2.5V | 00:00:00 | 00:00:00 | 00:00:00 | |
| LZ4TU-5 | 2026-09-02 00:59:00 | 46.22314 | 21.13922 | 97° | 62km/h | 8325m | -10.1m/s | -28.8°C | 4.4% | 358.1hPa | 2.5V | 00:00:00 | 00:00:00 | 00:00:00 | |
| LZ4TU-5 | 2026-09-02 00:56:27 | 46.22191 | 21.09999 | 86° | 77km/h | 9837m | -10.7m/s | -41.0°C | 20.5% | 288.3hPa | 2.5V | 00:00:00 | 00:00:00 | 00:00:00 | |
| LZ4TU-5 | 2026-09-02 00:56:22 | 46.22186 | 21.09860 | 88° | 78km/h | 9887m | -10.5m/s | -41.4°C | 20.8% | 286.2hPa | 2.5V | 00:00:00 | 00:00:00 | 00:00:00 | |
| LZ4TU-5 | 2026-09-02 00:54:16 | 46.22170 | 21.06214 | 97° | 88km/h | 11212m | -9.9m/s | -52.2°C | 31.9% | 234.3hPa | 2.5V | 00:00:00 | 00:00:00 | 00:00:00 | |
| LZ4TU-5 | 2026-09-02 00:52:01 | 46.22192 | 21.01372 | 91° | 124km/h | 12702m | -11.8m/s | -57.5°C | 8.3% | 185.4hPa | 2.5V | 00:00:00 | 00:00:00 | 00:00:00 | |
| LZ4TU-5 | 2026-09-02 00:51:57 | 46.22192 | 21.01193 | 91° | 122km/h | 12748m | -12.6m/s | -57.4°C | 7.2% | 184.1hPa | 2.5V | 00:00:00 | 00:00:00 | 00:00:00 | |
| LZ4TU-5 | 2026-09-02 00:49:55 | 46.22044 | 20.96601 | 79° | 86km/h | 14191m | -12.0m/s | -56.2°C | 2.3% | 146.6hPa | 2.5V | 00:00:00 | 00:00:00 | 00:00:00 | |
| LZ4TU-5 | 2026-09-02 00:47:53 | 46.21637 | 20.93033 | 94° | 68km/h | 15775m | -14.1m/s | -56.7°C | 1.6% | 114.2hPa | 2.5V | 00:00:00 | 00:00:00 | 00:00:00 | |
| LZ4TU-5 | 2026-09-02 00:46:14 | 46.21625 | 20.91030 | 79° | 62km/h | 17061m | -15.1m/s | -55.9°C | 1.4% | 93.3hPa | 2.5V | 00:00:00 | 00:00:00 | 00:00:00 | |
| OM5KV | 2026-09-02 00:45:09 | 46.21672 | 20.90165 | 81° | 47km/h | 17881m | -11.2m/s | -56.7°C | 1.5% | 82.0hPa | 2.5V | 00:00:00 | 00:00:00 | 00:00:00 | |
| OM5KV | 2026-09-02 00:44:37 | 46.21744 | 20.89647 | 118° | 31km/h | 18281m | -14.0m/s | -55.6°C | 0% | 77.1hPa | 2.5V | 00:00:00 | 00:00:00 | 00:00:00 | |
| OM5KV | 2026-09-02 00:44:36 | 46.21747 | 20.89636 | 121° | 31km/h | 18295m | -14.1m/s | -55.7°C | 1.2% | 76.9hPa | 2.5V | 00:00:00 | 00:00:00 | 00:00:00 | |
| OM5KV | 2026-09-02 00:44:32 | 46.21758 | 20.89603 | 113° | 24km/h | 18354m | -15.1m/s | -56.1°C | 0% | 76.2hPa | 2.5V | 00:00:00 | 00:00:00 | 00:00:00 | |
| OM5KV | 2026-09-02 00:44:31 | 46.21760 | 20.89595 | 109° | 22km/h | 18369m | -13.0m/s | -56.3°C | 1.3% | 76.0hPa | 2.5V | 00:00:00 | 00:00:00 | 00:00:00 | |
| OM5KV | 2026-09-02 00:44:26 | 46.21770 | 20.89545 | 114° | 27km/h | 18446m | -17.7m/s | -56.6°C | 0% | 75.1hPa | 2.5V | 00:00:00 | 00:00:00 | 00:00:00 | |
| OM5KV | 2026-09-02 00:43:30 | 46.21727 | 20.89179 | 60° | 22km/h | 19227m | -12.1m/s | -55.6°C | 1.2% | 66.4hPa | 2.5V | 08:22:00 | 00:00:00 | 00:00:00 | |
| OM5KV | 2026-09-02 00:43:25 | 46.21712 | 20.89129 | 80° | 26km/h | 19304m | -9.0m/s | -55.7°C | 1.3% | 65.5hPa | 2.5V | 08:22:00 | 00:00:00 | 00:00:00 | |
| OM5KV | 2026-09-02 00:43:18 | 46.21709 | 20.89080 | 96° | 20km/h | 19381m | -14.6m/s | -55.3°C | 1.2% | 64.8hPa | 2.5V | 08:22:00 | 00:00:00 | 00:00:00 | |
| OM5KV | 2026-09-02 00:43:14 | 46.21713 | 20.89048 | 105° | 15km/h | 19448m | -12.7m/s | 0°C | 0% | 64.1hPa | 2.5V | 00:00:00 | 00:00:00 | 00:00:00 | |
| OM5KV | 2026-09-02 00:43:13 | 46.21714 | 20.89043 | 105° | 13km/h | 19461m | -11.4m/s | -55.3°C | 1.2% | 64.0hPa | 2.5V | 00:00:00 | 00:00:00 | 00:00:00 | |
| OM5KV | 2026-09-02 00:43:06 | 46.21717 | 20.89021 | 83° | 9km/h | 19553m | -15.3m/s | 0°C | 0% | 63.1hPa | 2.5V | 00:00:00 | 00:00:00 | 00:00:00 | |
| OM5KV | 2026-09-02 00:43:00 | 46.21704 | 20.88997 | 46° | 20km/h | 19649m | -21.7m/s | -55.6°C | 1.2% | 62.3hPa | 2.5V | 00:00:00 | 00:00:00 | 00:00:00 | |
| OM5KV | 2026-09-02 00:42:55 | 46.21690 | 20.88966 | 69° | 20km/h | 19730m | -14.2m/s | 0°C | 0% | 61.4hPa | 2.5V | 00:00:00 | 00:00:00 | 00:00:00 | |
| OM5KV | 2026-09-02 00:42:54 | 46.21688 | 20.88959 | 74° | 20km/h | 19743m | -11.6m/s | -55.7°C | 1.3% | 61.2hPa | 2.5V | 00:00:00 | 00:00:00 | 00:00:00 | |
| OM5KV | 2026-09-02 00:42:49 | 46.21680 | 20.88922 | 68° | 22km/h | 19811m | -14.0m/s | 0°C | 0% | 60.6hPa | 2.5V | 00:00:00 | 00:00:00 | 00:00:00 | |
| OM5KV | 2026-09-02 00:42:42 | 46.21666 | 20.88865 | 77° | 20km/h | 19916m | -15.9m/s | 0°C | 0% | 59.6hPa | 2.5V | 00:00:00 | 00:00:00 | 00:00:00 | |
| OM5KV | 2026-09-02 00:42:39 | 46.21662 | 20.88846 | 67° | 15km/h | 19961m | -12.8m/s | -56.0°C | 1.3% | 59.2hPa | 2.5V | 00:00:00 | 00:00:00 | 00:00:00 | |
| OM5KV | 2026-09-02 00:42:33 | 46.21653 | 20.88828 | 37° | 9km/h | 20046m | -10.7m/s | -55.9°C | 1.3% | 58.4hPa | 2.5V | 00:00:00 | 00:00:00 | 00:00:00 | |
| OM5KV | 2026-09-02 00:42:28 | 46.21639 | 20.88815 | 39° | 22km/h | 20110m | -13.8m/s | -55.4°C | 1.2% | 57.9hPa | 2.5V | 00:00:00 | 00:00:00 | 00:00:00 | |
| OM5KV | 2026-09-02 00:42:24 | 46.21617 | 20.88781 | 53° | 29km/h | 20177m | -22.4m/s | 0°C | 0% | 57.4hPa | 2.5V | 00:00:00 | 00:00:00 | 00:00:00 | |
| OM5KV | 2026-09-02 00:42:22 | 46.21612 | 20.88773 | 52° | 27km/h | 20198m | -19.9m/s | -55.5°C | 1.2% | 57.1hPa | 2.5V | 00:00:00 | 00:00:00 | 00:00:00 | |
| OM5KV | 2026-09-02 00:42:18 | 46.21597 | 20.88742 | 58° | 22km/h | 20261m | -12.0m/s | 0°C | 0% | 56.5hPa | 2.5V | 00:00:00 | 00:00:00 | 00:00:00 | |
| OM5KV | 2026-09-02 00:42:17 | 46.21592 | 20.88730 | 67° | 16km/h | 20286m | -13.5m/s | -55.7°C | 1.3% | 56.2hPa | 2.5V | 00:00:00 | 00:00:00 | 00:00:00 | |
| OM5KV | 2026-09-02 00:42:12 | 46.21593 | 20.88710 | 111° | 15km/h | 20337m | -12.8m/s | 0°C | 0% | 0hPa | 2.5V | 00:00:00 | 00:00:00 | 00:00:00 | |
| OM5KV | 2026-09-02 00:42:08 | 46.21597 | 20.88690 | 74° | 5km/h | 20401m | -13.2m/s | 0°C | 0% | 0hPa | 2.5V | 00:00:00 | 00:00:00 | 00:00:00 | |
| OM5KV | 2026-09-02 00:42:03 | 46.21592 | 20.88684 | 20° | 5km/h | 20458m | -15.4m/s | -54.4°C | 1.1% | 54.8hPa | 2.5V | 00:00:00 | 00:00:00 | 00:00:00 | |
| OM5KV | 2026-09-02 00:42:01 | 46.21590 | 20.88683 | 16° | 5km/h | 20487m | -13.5m/s | 0°C | 0% | 0hPa | 2.5V | 00:00:00 | 00:00:00 | 00:00:00 | |
| OM5KV | 2026-09-02 00:41:57 | 46.21583 | 20.88677 | 37° | 9km/h | 20544m | -11.5m/s | -54.7°C | 1.2% | 54.0hPa | 2.5V | 00:00:00 | 00:00:00 | 00:00:00 | |
| OM5KV | 2026-09-02 00:41:55 | 46.21578 | 20.88674 | 28° | 11km/h | 20570m | -12.1m/s | 0°C | 0% | 0hPa | 2.5V | 00:00:00 | 00:00:00 | 00:00:00 | |
| OM5KV | 2026-09-02 00:41:50 | 46.21560 | 20.88664 | 12° | 18km/h | 20635m | -13.5m/s | 0°C | 0% | 0hPa | 2.5V | 00:00:00 | 00:00:00 | 00:00:00 | |
| OM5KV | 2026-09-02 00:41:44 | 46.21538 | 20.88651 | 49° | 13km/h | 20727m | -11.6m/s | 0°C | 0% | 0hPa | 2.5V | 00:00:00 | 00:00:00 | 00:00:00 | |
| OM5KV | 2026-09-02 00:41:39 | 46.21531 | 20.88627 | 78° | 16km/h | 20792m | -14.0m/s | -55.6°C | 1.2% | 52.0hPa | 2.5V | 00:00:00 | 00:00:00 | 00:00:00 | |
| OM5KV | 2026-09-02 00:41:25 | 46.21514 | 20.88575 | 24° | 9km/h | 20982m | -14.2m/s | -55.6°C | 1.2% | 50.4hPa | 2.5V | 00:00:00 | 00:00:00 | 00:00:00 | |
| OM5KV | 2026-09-02 00:41:24 | 46.21512 | 20.88573 | 26° | 13km/h | 20995m | -13.6m/s | 0°C | 0% | 0hPa | 2.5V | 00:00:00 | 00:00:00 | 00:00:00 | |
| 9A1FER-10 | 2026-09-02 00:40:37 | 46.21358 | 20.88250 | 80° | 22km/h | 21671m | -16.0m/s | -54.6°C | 4.0% | 45.2hPa | 2.5V | 00:00:00 | 01:51:15 | 00:00:00 | |
| 9A1FER-10 | 2026-09-02 00:40:15 | 46.21331 | 20.88090 | 78° | 13km/h | 21979m | -15.2m/s | -54.9°C | 4.2% | 43.1hPa | 2.5V | 00:00:00 | 01:50:53 | 00:00:00 | |
| 9A1FER-10 | 2026-09-02 00:39:58 | 46.21297 | 20.88041 | 21° | 16km/h | 22216m | -16.0m/s | -53.5°C | 3.9% | 41.6hPa | 2.6V | 00:00:00 | 01:50:36 | 00:00:00 | |
| 9A1FER-10 | 2026-09-02 00:39:43 | 46.21296 | 20.87959 | 100° | 18km/h | 22452m | -12.1m/s | -52.8°C | 3.9% | 40.0hPa | 2.6V | 00:00:00 | 01:50:21 | 00:00:00 | |
| LZ4TU-5 | 2026-09-02 00:39:40 | 46.21299 | 20.87946 | 112° | 22km/h | 22478m | -13.6m/s | -52.7°C | 1.1% | 39.9hPa | 2.6V | 00:00:00 | 00:00:00 | 00:00:00 | |
| LZ4TU-5 | 2026-09-02 00:39:36 | 46.21308 | 20.87917 | 121° | 20km/h | 22530m | -13.3m/s | -52.3°C | 1.0% | 39.6hPa | 2.6V | 00:00:00 | 00:00:00 | 00:00:00 | |
| 9A1FER-10 | 2026-09-02 00:39:28 | 46.21332 | 20.87905 | 207° | 20km/h | 22668m | -18.2m/s | -51.4°C | 3.3% | 38.7hPa | 2.6V | 00:00:00 | 01:50:06 | 00:00:00 | |
| 9A1FER-10 | 2026-09-02 00:39:13 | 46.21389 | 20.87982 | 247° | 24km/h | 22909m | -14.3m/s | -52.6°C | 3.6% | 37.3hPa | 2.5V | 00:00:00 | 01:49:51 | 00:00:00 | |
| 9A1FER-10 | 2026-09-02 00:38:58 | 46.21413 | 20.88096 | 286° | 4km/h | 23130m | -16.0m/s | -53.6°C | 3.8% | 36.0hPa | 2.5V | 00:00:00 | 01:49:36 | 00:00:00 | |
| 9A1FER-3 | 2026-09-02 00:38:55 | 46.21411 | 20.88105 | 293° | 9km/h | 23177m | -13.9m/s | -53.6°C | 3.8% | 35.8hPa | 2.5V | 00:00:00 | 01:49:33 | 00:00:00 | |
| 9A1FER-10 | 2026-09-02 00:38:43 | 46.21411 | 20.88107 | 87° | 9km/h | 23340m | -12.2m/s | -53.7°C | 4.0% | 34.8hPa | 2.5V | 00:00:00 | 01:49:21 | 08:30:00 | |
| 9A1FER-3 | 2026-09-02 00:38:36 | 46.21423 | 20.88086 | 157° | 16km/h | 23432m | -13.7m/s | -53.8°C | 3.9% | 34.4hPa | 2.5V | 00:00:00 | 01:49:14 | 00:00:00 | |
| LZ4TU-5 | 2026-09-02 00:37:59 | 46.21503 | 20.88095 | 168° | 9km/h | 24001m | -18.5m/s | -52.9°C | 1.1% | 31.5hPa | 2.5V | 00:00:00 | 00:00:00 | 00:00:00 | |
| 9A1FER-3 | 2026-09-02 00:37:04 | 46.21469 | 20.88029 | 98° | 24km/h | 24958m | -18.7m/s | -51.3°C | 3.6% | 27.1hPa | 2.5V | 08:28:00 | 01:47:42 | 00:00:00 | |
| 9A1FER-3 | 2026-09-02 00:36:46 | 46.21551 | 20.87955 | 175° | 22km/h | 25271m | -20.1m/s | -50.5°C | 3.3% | 25.8hPa | 2.5V | 00:00:00 | 01:47:24 | 00:00:00 | |
| 9A1FER-3 | 2026-09-02 00:36:30 | 46.21632 | 20.87991 | 225° | 11km/h | 25526m | -18.5m/s | -51.0°C | 3.6% | 24.8hPa | 2.5V | 00:00:00 | 01:47:08 | 00:00:00 | |
| 9A1FER-3 | 2026-09-02 00:36:15 | 46.21620 | 20.88033 | 285° | 11km/h | 25771m | -19.4m/s | -50.4°C | 3.5% | 23.9hPa | 2.5V | 00:00:00 | 01:46:53 | 00:00:00 | |
| 9A1FER-3 | 2026-09-02 00:36:00 | 46.21629 | 20.88091 | 257° | 16km/h | 26028m | -16.7m/s | -50.2°C | 3.5% | 23.0hPa | 2.6V | 00:00:00 | 01:46:38 | 00:00:00 | |
| LZ4TU-5 | 2026-09-02 00:35:53 | 46.21629 | 20.88128 | 310° | 20km/h | 26125m | -22.4m/s | -49.6°C | 0.9% | 22.7hPa | 2.6V | 00:00:00 | 00:00:00 | 00:00:00 | |
| 9A1FER-3 | 2026-09-02 00:35:34 | 46.21541 | 20.88173 | 81° | 11km/h | 26512m | -23.9m/s | -48.7°C | 3.1% | 21.4hPa | 2.6V | 00:00:00 | 01:46:12 | 00:00:00 | |
| 9A1FER-3 | 2026-09-02 00:35:16 | 46.21540 | 20.88144 | 135° | 5km/h | 26716m | 6.6m/s | -49.1°C | 3.2% | 20.6hPa | 2.6V | 00:00:00 | 01:45:54 | 00:00:00 | |
| 9A1FER-3 | 2026-09-02 00:34:56 | 46.21536 | 20.88097 | 83° | 11km/h | 26588m | 5.2m/s | -49.1°C | 3.3% | 21.0hPa | 2.7V | 00:00:00 | 01:45:34 | 00:00:00 | |
| 9A1FER-3 | 2026-09-02 00:34:37 | 46.21497 | 20.88034 | 73° | 15km/h | 26469m | 6.2m/s | -48.9°C | 3.2% | 21.4hPa | 2.7V | 00:00:00 | 01:45:15 | 00:00:00 | |
| 9A1FER-3 | 2026-09-02 00:34:22 | 46.21444 | 20.88023 | 10° | 27km/h | 26375m | 7.3m/s | -49.5°C | 3.3% | 21.7hPa | 2.7V | 00:00:00 | 01:45:00 | 08:30:00 | |
| 9A1FER-3 | 2026-09-02 00:34:05 | 46.21336 | 20.88083 | 330° | 18km/h | 26263m | 6.4m/s | -49.5°C | 3.3% | 22.1hPa | 2.6V | 00:00:00 | 01:44:43 | 00:00:00 | |
| 9A1FER-3 | 2026-09-02 00:33:50 | 46.21286 | 20.88154 | 301° | 18km/h | 26164m | 6.6m/s | -49.7°C | 3.3% | 22.4hPa | 2.6V | 00:00:00 | 01:44:28 | 00:00:00 | |
| 9A1FER-3 | 2026-09-02 00:33:34 | 46.21256 | 20.88253 | 306° | 18km/h | 26062m | 5.2m/s | 0°C | 0% | 0hPa | 2.6V | 00:00:00 | 01:44:12 | 00:00:00 | |
| 9A1FER-3 | 2026-09-02 00:33:19 | 46.21264 | 20.88343 | 280° | 15km/h | 25967m | 6.6m/s | 0°C | 0% | 0hPa | 2.6V | 00:00:00 | 01:43:57 | 00:00:00 | |
| 9A1FER-3 | 2026-09-02 00:33:04 | 46.21293 | 20.88388 | 298° | 9km/h | 25874m | 5.7m/s | 0°C | 0% | 0hPa | 2.6V | 00:00:00 | 01:43:42 | 00:00:00 | |
| 9A1FER-3 | 2026-09-02 00:32:49 | 46.21303 | 20.88415 | 310° | 9km/h | 25778m | 6.2m/s | 0°C | 0% | 0hPa | 2.6V | 00:00:00 | 01:43:27 | 00:00:00 | |
| 9A1FER-3 | 2026-09-02 00:32:34 | 46.21298 | 20.88452 | 276° | 11km/h | 25686m | 7.4m/s | 0°C | 0% | 0hPa | 2.6V | 00:00:00 | 01:43:12 | 00:00:00 | |
| LZ4TU-5 | 2026-09-02 00:32:29 | 46.21292 | 20.88482 | 301° | 9km/h | 25655m | 4.9m/s | -50.6°C | 0.9% | 24.3hPa | 2.6V | 00:00:00 | 00:00:00 | 00:00:00 | |
| 9A1FER-3 | 2026-09-02 00:32:18 | 46.21286 | 20.88519 | 266° | 16km/h | 25590m | 7.0m/s | 0°C | 0% | 0hPa | 2.6V | 00:00:00 | 01:42:56 | 00:00:00 | |
| 9A1FER-3 | 2026-09-02 00:32:03 | 46.21317 | 20.88588 | 232° | 24km/h | 25499m | 6.8m/s | 0°C | 0% | 0hPa | 2.6V | 00:00:00 | 01:42:41 | 00:00:00 | |
| LZ4TU-5 | 2026-09-02 00:30:51 | 46.21698 | 20.88494 | 141° | 15km/h | 25080m | 6.5m/s | -50.9°C | 0% | 26.6hPa | 2.6V | 00:00:00 | 00:00:00 | 00:00:00 | |
| LZ4TU-5 | 2026-09-02 00:30:45 | 46.21712 | 20.88467 | 121° | 24km/h | 25052m | 5.7m/s | -51.0°C | 0% | 26.7hPa | 2.6V | 00:00:00 | 00:00:00 | 00:00:00 | |
| LZ4TU-5 | 2026-09-02 00:29:18 | 46.21659 | 20.88312 | 43° | 5km/h | 24539m | 5.1m/s | -52.6°C | 0% | 28.9hPa | 2.6V | 00:00:00 | 00:00:00 | 00:00:00 | |
| LZ4TU-5 | 2026-09-02 00:29:14 | 46.21654 | 20.88313 | 354° | 5km/h | 24516m | 6.8m/s | -52.6°C | 0% | 29.0hPa | 2.6V | 00:00:00 | 00:00:00 | 00:00:00 | |
| 9A1FER-10 | 2026-09-02 00:28:40 | 46.21644 | 20.88193 | 59° | 13km/h | 24304m | 6.1m/s | -53.0°C | 3.8% | 29.9hPa | 2.6V | 00:00:00 | 01:39:18 | 00:00:00 | |
| 9A1FER-10 | 2026-09-02 00:28:25 | 46.21614 | 20.88174 | 356° | 13km/h | 24214m | 6.5m/s | -53.3°C | 3.8% | 30.4hPa | 2.6V | 00:00:00 | 01:39:03 | 00:00:00 | |
| 9A1FER-10 | 2026-09-02 00:28:10 | 46.21587 | 20.88164 | 55° | 7km/h | 24123m | 6.8m/s | -53.2°C | 3.9% | 30.8hPa | 2.6V | 00:00:00 | 01:38:48 | 00:00:00 | |
| 9A1FER-10 | 2026-09-02 00:27:51 | 46.21600 | 20.88151 | 124° | 7km/h | 24006m | 5.8m/s | -52.8°C | 3.7% | 31.4hPa | 2.6V | 00:00:00 | 01:38:29 | 00:00:00 | |
| LZ4TU-5 | 2026-09-02 00:27:39 | 46.21609 | 20.88132 | 155° | 15km/h | 23939m | 6.4m/s | -53.0°C | 0% | 31.7hPa | 2.6V | 00:00:00 | 00:00:00 | 00:00:00 | |
| 9A1FER-10 | 2026-09-02 00:27:35 | 46.21618 | 20.88124 | 123° | 7km/h | 23909m | 6.4m/s | -53.1°C | 3.8% | 31.8hPa | 2.6V | 00:00:00 | 01:38:13 | 00:00:00 | |
| 9A1FER-10 | 2026-09-02 00:27:20 | 46.21643 | 20.88104 | 151° | 7km/h | 23816m | 6.3m/s | -53.4°C | 3.8% | 32.3hPa | 2.6V | 00:00:00 | 01:37:58 | 00:00:00 | |
| 9A1FER-10 | 2026-09-02 00:27:05 | 46.21675 | 20.88103 | 167° | 15km/h | 23726m | 6.2m/s | -53.3°C | 3.9% | 32.8hPa | 2.6V | 00:00:00 | 01:37:43 | 00:00:00 | |
| 9A1FER-10 | 2026-09-02 00:26:48 | 46.21729 | 20.88142 | 224° | 13km/h | 23625m | 6.5m/s | -53.3°C | 3.9% | 33.3hPa | 2.6V | 00:00:00 | 01:37:26 | 00:00:00 | |
| 9A1FER-10 | 2026-09-02 00:26:33 | 46.21767 | 20.88159 | 167° | 20km/h | 23535m | 5.8m/s | -53.2°C | 3.9% | 33.8hPa | 2.6V | 00:00:00 | 01:37:11 | 08:30:00 | |
| 9A1FER-10 | 2026-09-02 00:26:17 | 46.21839 | 20.88148 | 150° | 15km/h | 23439m | 5.0m/s | -53.3°C | 3.9% | 34.3hPa | 2.6V | 00:00:00 | 01:36:55 | 00:00:00 | |
| 9A1FER-10 | 2026-09-02 00:25:59 | 46.21897 | 20.88087 | 110° | 7km/h | 23328m | 4.4m/s | -53.2°C | 3.9% | 34.9hPa | 2.6V | 00:00:00 | 01:36:37 | 00:00:00 | |
| LZ4TU-5 | 2026-09-02 00:25:53 | 46.21893 | 20.88080 | 96° | 2km/h | 23296m | 5.8m/s | -53.1°C | 0% | 35.1hPa | 2.6V | 00:00:00 | 00:00:00 | 00:00:00 | |
| LZ4TU-5 | 2026-09-02 00:25:49 | 46.21895 | 20.88071 | 114° | 11km/h | 23271m | 6.7m/s | -53.1°C | 0% | 35.3hPa | 2.6V | 00:00:00 | 00:00:00 | 00:00:00 | |
| 9A1FER-10 | 2026-09-02 00:25:44 | 46.21896 | 20.88050 | 33° | 5km/h | 23235m | 7.1m/s | -53.1°C | 3.8% | 35.4hPa | 2.6V | 00:00:00 | 01:36:22 | 00:00:00 | |
| 9A1FER-10 | 2026-09-02 00:25:29 | 46.21901 | 20.88047 | 281° | 9km/h | 23141m | 7.0m/s | -53.0°C | 3.9% | 35.9hPa | 2.6V | 00:00:00 | 01:36:07 | 00:00:00 | |
| 9A1FER-10 | 2026-09-02 00:25:14 | 46.21906 | 20.88091 | 256° | 15km/h | 23051m | 7.0m/s | -53.0°C | 3.8% | 36.4hPa | 2.6V | 00:00:00 | 01:35:52 | 00:00:00 | |
| 9A1FER-10 | 2026-09-02 00:24:59 | 46.21934 | 20.88168 | 246° | 24km/h | 22963m | 6.7m/s | -52.8°C | 3.9% | 36.9hPa | 2.6V | 00:00:00 | 01:35:37 | 00:00:00 | |
| OM5KV | 2026-09-02 00:24:31 | 46.22039 | 20.88284 | 210° | 18km/h | 22802m | 5.4m/s | -52.2°C | 1.1% | 37.9hPa | 2.6V | 00:00:00 | 00:00:00 | 00:00:00 | |
| OM5KV | 2026-09-02 00:24:26 | 46.22056 | 20.88301 | 204° | 16km/h | 22773m | 6.7m/s | -52.1°C | 1.0% | 38.1hPa | 2.6V | 00:00:00 | 00:00:00 | 00:00:00 | |
| OM5KV | 2026-09-02 00:24:20 | 46.22077 | 20.88306 | 184° | 16km/h | 22738m | 6.0m/s | -52.1°C | 1.0% | 38.3hPa | 2.6V | 00:00:00 | 00:00:00 | 00:00:00 | |
| OM5KV | 2026-09-02 00:24:14 | 46.22097 | 20.88314 | 189° | 13km/h | 22704m | 6.0m/s | -51.9°C | 1.0% | 38.5hPa | 2.6V | 00:00:00 | 00:00:00 | 00:00:00 | |
| LZ4TU-5 | 2026-09-02 00:24:12 | 46.22106 | 20.88313 | 161° | 11km/h | 22687m | 4.9m/s | -51.9°C | 0% | 38.6hPa | 2.6V | 00:00:00 | 00:00:00 | 00:00:00 | |
| OM5KV | 2026-09-02 00:24:09 | 46.22113 | 20.88309 | 156° | 18km/h | 22677m | 7.2m/s | -51.8°C | 1.0% | 38.7hPa | 2.6V | 00:00:00 | 00:00:00 | 00:00:00 | |
| OM5KV | 2026-09-02 00:24:03 | 46.22142 | 20.88294 | 165° | 18km/h | 22641m | 6.4m/s | -52.0°C | 1.0% | 38.9hPa | 2.6V | 00:00:00 | 00:00:00 | 00:00:00 | |
| OM5KV | 2026-09-02 00:23:53 | 46.22182 | 20.88268 | 153° | 26km/h | 22585m | 5.8m/s | -52.2°C | 1.0% | 39.2hPa | 2.6V | 00:00:00 | 00:00:00 | 00:00:00 | |
| OM5KV | 2026-09-02 00:23:47 | 46.22211 | 20.88238 | 110° | 15km/h | 22550m | 6.3m/s | -52.6°C | 1.0% | 39.4hPa | 2.6V | 00:00:00 | 00:00:00 | 00:00:00 | |
| OM5KV | 2026-09-02 00:23:42 | 46.22210 | 20.88208 | 89° | 15km/h | 22522m | 6.5m/s | -52.9°C | 1.1% | 39.6hPa | 2.6V | 00:00:00 | 00:00:00 | 00:00:00 | |
| OM5KV | 2026-09-02 00:23:32 | 46.22239 | 20.88146 | 99° | 26km/h | 22465m | 5.5m/s | -53.1°C | 1.1% | 39.9hPa | 2.6V | 00:00:00 | 00:00:00 | 00:00:00 | |
| OM5KV | 2026-09-02 00:23:26 | 46.22237 | 20.88098 | 97° | 18km/h | 22432m | 5.8m/s | -53.3°C | 1.1% | 40.2hPa | 2.6V | 00:00:00 | 00:00:00 | 00:00:00 | |
| OM5KV | 2026-09-02 00:23:20 | 46.22238 | 20.88068 | 94° | 13km/h | 22400m | 5.9m/s | -53.2°C | 1.1% | 40.4hPa | 2.6V | 00:00:00 | 00:00:00 | 00:00:00 | |
| OM5KV | 2026-09-02 00:23:15 | 46.22237 | 20.88045 | 71° | 13km/h | 22372m | 5.5m/s | -53.2°C | 1.1% | 40.5hPa | 2.6V | 00:00:00 | 00:00:00 | 00:00:00 | |
| OM5KV | 2026-09-02 00:23:10 | 46.22230 | 20.88018 | 75° | 11km/h | 22338m | 5.9m/s | -53.3°C | 1.1% | 40.7hPa | 2.6V | 00:00:00 | 00:00:00 | 00:00:00 | |
| OM5KV | 2026-09-02 00:23:04 | 46.22226 | 20.87994 | 56° | 13km/h | 22303m | 6.4m/s | -53.6°C | 1.1% | 41.0hPa | 2.6V | 00:00:00 | 00:00:00 | 00:00:00 | |
| OM5KV | 2026-09-02 00:22:57 | 46.22213 | 20.87977 | 44° | 7km/h | 22270m | 6.8m/s | -53.5°C | 1.1% | 41.2hPa | 2.6V | 00:00:00 | 00:00:00 | 00:00:00 | |
| OM5KV | 2026-09-02 00:22:52 | 46.22208 | 20.87968 | 7° | 5km/h | 22241m | 5.0m/s | -53.6°C | 1.1% | 41.4hPa | 2.6V | 00:00:00 | 00:00:00 | 00:00:00 | |
| OM5KV | 2026-09-02 00:22:46 | 46.22190 | 20.87958 | 14° | 16km/h | 22208m | 4.8m/s | -53.8°C | 1.1% | 41.6hPa | 2.6V | 00:00:00 | 00:00:00 | 00:00:00 | |
| OM5KV | 2026-09-02 00:22:40 | 46.22172 | 20.87954 | 334° | 9km/h | 22174m | 5.0m/s | -54.1°C | 1.1% | 41.8hPa | 2.6V | 00:00:00 | 00:00:00 | 00:00:00 | |
| 9A1FER-10 | 2026-09-02 00:22:39 | 46.22169 | 20.87957 | 337° | 7km/h | 22163m | 6.1m/s | -54.0°C | 3.9% | 41.8hPa | 2.6V | 00:00:00 | 01:33:17 | 00:00:00 | |
| OM5KV | 2026-09-02 00:22:34 | 46.22161 | 20.87958 | 355° | 13km/h | 22141m | 5.0m/s | -54.0°C | 1.1% | 42.0hPa | 2.6V | 00:00:00 | 00:00:00 | 00:00:00 | |
| LZ4TU-5 | 2026-09-02 00:22:32 | 46.22154 | 20.87958 | 14° | 7km/h | 22123m | 5.4m/s | -54.0°C | 0% | 42.1hPa | 2.6V | 00:00:00 | 00:00:00 | 00:00:00 | |
| 9A1FER-10 | 2026-09-02 00:22:24 | 46.22148 | 20.87946 | 79° | 13km/h | 22078m | 6.3m/s | -54.4°C | 4.0% | 42.4hPa | 2.6V | 00:00:00 | 01:33:02 | 00:00:00 | |
| OM5KV | 2026-09-02 00:22:22 | 46.22148 | 20.87943 | 75° | 7km/h | 22072m | 5.0m/s | -54.5°C | 1.1% | 42.5hPa | 2.6V | 00:00:00 | 00:00:00 | 00:00:00 | |
| OM5KV | 2026-09-02 00:22:16 | 46.22144 | 20.87926 | 77° | 5km/h | 22038m | 5.0m/s | -54.4°C | 1.1% | 42.7hPa | 2.6V | 00:00:00 | 00:00:00 | 00:00:00 | |
| OM5KV | 2026-09-02 00:22:10 | 46.22142 | 20.87894 | 81° | 24km/h | 22004m | 6.7m/s | -54.8°C | 1.2% | 42.9hPa | 2.6V | 00:00:00 | 00:00:00 | 00:00:00 | |
| 9A1FER-10 | 2026-09-02 00:22:09 | 46.22140 | 20.87876 | 81° | 18km/h | 21992m | 4.8m/s | -54.8°C | 4.2% | 43.0hPa | 2.6V | 00:00:00 | 01:32:47 | 08:30:00 | |
| OM5KV | 2026-09-02 00:22:05 | 46.22136 | 20.87849 | 83° | 16km/h | 21969m | 6.2m/s | -54.8°C | 1.2% | 43.2hPa | 2.7V | 00:00:00 | 00:00:00 | 00:00:00 | |
| OM5KV | 2026-09-02 00:21:56 | 46.22133 | 20.87802 | 92° | 20km/h | 21923m | 6.2m/s | -54.8°C | 1.2% | 43.5hPa | 2.7V | 00:00:00 | 00:00:00 | 00:00:00 | |
| 9A1FER-10 | 2026-09-02 00:21:54 | 46.22132 | 20.87777 | 85° | 15km/h | 21906m | 6.3m/s | -54.7°C | 4.0% | 43.5hPa | 2.7V | 00:00:00 | 01:32:32 | 00:00:00 | |
| OM5KV | 2026-09-02 00:21:50 | 46.22127 | 20.87754 | 58° | 18km/h | 21889m | 5.9m/s | -54.7°C | 1.2% | 43.7hPa | 2.7V | 00:00:00 | 00:00:00 | 00:00:00 | |
| OM5KV | 2026-09-02 00:21:44 | 46.22114 | 20.87732 | 42° | 7km/h | 21855m | 5.6m/s | -54.6°C | 1.2% | 43.9hPa | 2.7V | 00:00:00 | 00:00:00 | 00:00:00 | |
| 9A1FER-10 | 2026-09-02 00:21:39 | 46.22115 | 20.87709 | 103° | 13km/h | 21821m | 5.2m/s | -54.6°C | 4.2% | 44.1hPa | 2.7V | 00:00:00 | 01:32:17 | 00:00:00 | |
| OM5KV | 2026-09-02 00:21:34 | 46.22112 | 20.87693 | 45° | 13km/h | 21799m | 6.1m/s | -54.6°C | 1.2% | 44.3hPa | 2.7V | 00:00:00 | 00:00:00 | 00:00:00 | |
| OM5KV | 2026-09-02 00:21:28 | 46.22100 | 20.87673 | 80° | 16km/h | 21766m | 5.8m/s | -54.4°C | 1.1% | 44.6hPa | 2.7V | 00:00:00 | 00:00:00 | 00:00:00 | |
| 9A1FER-10 | 2026-09-02 00:21:24 | 46.22098 | 20.87648 | 72° | 18km/h | 21736m | 5.8m/s | -54.1°C | 4.0% | 44.7hPa | 2.7V | 00:00:00 | 01:32:02 | 00:00:00 | |
| OM5KV | 2026-09-02 00:21:17 | 46.22090 | 20.87615 | 79° | 18km/h | 21703m | 6.0m/s | -53.9°C | 1.2% | 45.0hPa | 2.6V | 00:00:00 | 00:00:00 | 00:00:00 | |
| OM5KV | 2026-09-02 00:21:11 | 46.22087 | 20.87574 | 82° | 24km/h | 21668m | 5.7m/s | -53.7°C | 1.1% | 45.2hPa | 2.6V | 00:00:00 | 00:00:00 | 00:00:00 | |
| 9A1FER-10 | 2026-09-02 00:21:09 | 46.22083 | 20.87552 | 66° | 26km/h | 21651m | 4.9m/s | -53.9°C | 3.9% | 45.3hPa | 2.6V | 00:00:00 | 01:31:47 | 00:00:00 | |
| OM5KV | 2026-09-02 00:21:00 | 46.22071 | 20.87492 | 92° | 27km/h | 21605m | 5.6m/s | -54.3°C | 1.2% | 45.7hPa | 2.6V | 00:00:00 | 00:00:00 | 00:00:00 | |
| LZ4TU-5 | 2026-09-02 00:20:56 | 46.22072 | 20.87451 | 88° | 31km/h | 21581m | 6.6m/s | -54.4°C | 0% | 45.8hPa | 2.6V | 00:00:00 | 00:00:00 | 00:00:00 | |
| OM5KV | 2026-09-02 00:20:55 | 46.22071 | 20.87440 | 81° | 31km/h | 21575m | 5.5m/s | -54.3°C | 1.2% | 45.9hPa | 2.6V | 00:00:00 | 00:00:00 | 00:00:00 | |
| 9A1FER-10 | 2026-09-02 00:20:54 | 46.22067 | 20.87418 | 69° | 29km/h | 21564m | 6.5m/s | -54.2°C | 4.0% | 45.9hPa | 2.6V | 00:00:00 | 01:31:32 | 00:00:00 | |
| LZ4TU-5 | 2026-09-02 00:20:52 | 46.22064 | 20.87408 | 65° | 29km/h | 21558m | 5.2m/s | -54.3°C | 0% | 46.0hPa | 2.6V | 00:00:00 | 00:00:00 | 00:00:00 | |
| OM5KV | 2026-09-02 00:20:49 | 46.22054 | 20.87377 | 70° | 33km/h | 21541m | 5.7m/s | -54.2°C | 1.2% | 46.1hPa | 2.6V | 00:00:00 | 00:00:00 | 00:00:00 | |
| OM5KV | 2026-09-02 00:20:42 | 46.22042 | 20.87301 | 78° | 27km/h | 21502m | 6.4m/s | -54.1°C | 1.1% | 46.4hPa | 2.6V | 00:00:00 | 00:00:00 | 00:00:00 | |
| 9A1FER-10 | 2026-09-02 00:20:39 | 46.22029 | 20.87265 | 53° | 29km/h | 21479m | 5.3m/s | -54.0°C | 3.9% | 46.6hPa | 2.6V | 00:00:00 | 01:31:17 | 00:00:00 | |
| OM5KV | 2026-09-02 00:20:31 | 46.22001 | 20.87199 | 76° | 27km/h | 21439m | 6.1m/s | -54.1°C | 1.1% | 46.9hPa | 2.7V | 00:00:00 | 00:00:00 | 00:00:00 | |
| 9A1FER-10 | 2026-09-02 00:20:24 | 46.21968 | 20.87135 | 36° | 31km/h | 21396m | 6.7m/s | -54.4°C | 4.0% | 47.2hPa | 2.7V | 00:00:00 | 01:31:02 | 00:00:00 | |
| OM5KV | 2026-09-02 00:20:17 | 46.21933 | 20.87086 | 54° | 33km/h | 21363m | 6.3m/s | -54.4°C | 1.2% | 47.5hPa | 2.7V | 00:00:00 | 00:00:00 | 00:00:00 | |
| OM5KV | 2026-09-02 00:20:11 | 46.21901 | 20.87041 | 32° | 29km/h | 21331m | 6.1m/s | -54.2°C | 1.2% | 47.7hPa | 2.7V | 00:00:00 | 00:00:00 | 00:00:00 | |
| 9A1FER-10 | 2026-09-02 00:20:09 | 46.21882 | 20.87026 | 29° | 24km/h | 21314m | 5.8m/s | -54.0°C | 3.9% | 47.8hPa | 2.7V | 00:00:00 | 01:30:47 | 00:00:00 | |
| 9A1FER-10 | 2026-09-02 00:19:54 | 46.21815 | 20.86948 | 17° | 18km/h | 21231m | 5.0m/s | -54.1°C | 3.9% | 48.4hPa | 2.7V | 00:00:00 | 01:30:32 | 08:30:00 | |
| OM5KV | 2026-09-02 00:19:43 | 46.21771 | 20.86922 | 43° | 16km/h | 21173m | 5.8m/s | -54.5°C | 1.2% | 48.9hPa | 0V | 00:00:00 | 00:00:00 | 00:00:00 | |
| 9A1FER-10 | 2026-09-02 00:19:39 | 46.21759 | 20.86906 | 53° | 11km/h | 21146m | 6.4m/s | 0°C | 0% | 0hPa | 0V | 00:00:00 | 01:30:17 | 00:00:00 | |
| OM5KV | 2026-09-02 00:19:37 | 46.21758 | 20.86902 | 53° | 13km/h | 21140m | 5.2m/s | -54.6°C | 1.2% | 49.2hPa | 0V | 00:00:00 | 00:00:00 | 00:00:00 | |
| OM5KV | 2026-09-02 00:19:25 | 46.21737 | 20.86864 | 38° | 11km/h | 21074m | 5.0m/s | -54.5°C | 1.2% | 49.6hPa | 0V | 00:00:00 | 00:00:00 | 00:00:00 | |
| 9A1FER-10 | 2026-09-02 00:19:24 | 46.21731 | 20.86861 | 13° | 18km/h | 21062m | 5.2m/s | 0°C | 0% | 0hPa | 0V | 00:00:00 | 01:30:02 | 00:00:00 | |
| OM5KV | 2026-09-02 00:19:20 | 46.21718 | 20.86856 | 15° | 20km/h | 21045m | 4.5m/s | -54.5°C | 1.2% | 49.9hPa | 0V | 00:00:00 | 00:00:00 | 00:00:00 | |
| LZ4TU-5 | 2026-09-02 00:19:15 | 46.21698 | 20.86845 | 40° | 18km/h | 21017m | 5.6m/s | -54.7°C | 0% | 50.1hPa | 0V | 00:00:00 | 00:00:00 | 00:00:00 | |
| OM5KV | 2026-09-02 00:19:14 | 46.21695 | 20.86841 | 39° | 18km/h | 21011m | 5.3m/s | -54.7°C | 1.2% | 50.2hPa | 0V | 00:00:00 | 00:00:00 | 00:00:00 | |
| LZ4TU-5 | 2026-09-02 00:19:11 | 46.21683 | 20.86832 | 20° | 20km/h | 20994m | 6.4m/s | -54.6°C | 0% | 50.3hPa | 0V | 00:00:00 | 00:00:00 | 00:00:00 | |
| 9A1FER-10 | 2026-09-02 00:19:09 | 46.21665 | 20.86827 | 1° | 18km/h | 20977m | 6.0m/s | 0°C | 0% | 0hPa | 0V | 00:00:00 | 01:29:47 | 00:00:00 | |
| OM5KV | 2026-09-02 00:19:04 | 46.21645 | 20.86828 | 11° | 15km/h | 20954m | 5.3m/s | -54.5°C | 1.2% | 50.6hPa | 0V | 00:00:00 | 00:00:00 | 00:00:00 | |
| OM5KV | 2026-09-02 00:18:58 | 46.21623 | 20.86822 | 10° | 20km/h | 20921m | 6.0m/s | -54.5°C | 1.2% | 50.8hPa | 0V | 00:00:00 | 00:00:00 | 00:00:00 | |
| 9A1FER-10 | 2026-09-02 00:18:54 | 46.21597 | 20.86820 | 8° | 13km/h | 20892m | 4.2m/s | 0°C | 0% | 0hPa | 0V | 00:00:00 | 01:29:32 | 00:00:00 | |
| OM5KV | 2026-09-02 00:18:52 | 46.21593 | 20.86819 | 8° | 16km/h | 20888m | 3.5m/s | -54.3°C | 1.2% | 51.1hPa | 0V | 00:00:00 | 00:00:00 | 00:00:00 | |
| OM5KV | 2026-09-02 00:18:47 | 46.21575 | 20.86819 | 5° | 13km/h | 20854m | 4.6m/s | -54.4°C | 1.2% | 51.4hPa | 0V | 00:00:00 | 00:00:00 | 00:00:00 | |
| OM5KV | 2026-09-02 00:18:40 | 46.21557 | 20.86823 | 34° | 13km/h | 20821m | 6.0m/s | -54.2°C | 1.2% | 51.6hPa | 0V | 00:00:00 | 00:00:00 | 00:00:00 | |
| 9A1FER-10 | 2026-09-02 00:18:39 | 46.21552 | 20.86817 | 45° | 11km/h | 20810m | 5.3m/s | 0°C | 0% | 0hPa | 0V | 00:00:00 | 01:29:17 | 00:00:00 | |
| OM5KV | 2026-09-02 00:18:34 | 46.21543 | 20.86811 | 15° | 11km/h | 20786m | 7.5m/s | -54.4°C | 1.2% | 51.9hPa | 0V | 00:00:00 | 00:00:00 | 00:00:00 | |
| OM5KV | 2026-09-02 00:18:28 | 46.21533 | 20.86797 | 77° | 11km/h | 20752m | 5.4m/s | -54.5°C | 1.2% | 52.2hPa | 0V | 00:00:00 | 00:00:00 | 00:00:00 | |
| 9A1FER-10 | 2026-09-02 00:18:24 | 46.21528 | 20.86767 | 79° | 20km/h | 20724m | 4.0m/s | 0°C | 0% | 0hPa | 0V | 00:00:00 | 01:29:02 | 00:00:00 | |
| OM5KV | 2026-09-02 00:18:22 | 46.21527 | 20.86761 | 72° | 18km/h | 20719m | 4.2m/s | -54.7°C | 1.2% | 52.5hPa | 0V | 00:00:00 | 00:00:00 | 00:00:00 | |
| OM5KV | 2026-09-02 00:18:16 | 46.21516 | 20.86726 | 63° | 16km/h | 20687m | 6.0m/s | -54.7°C | 1.2% | 52.7hPa | 0V | 00:00:00 | 00:00:00 | 00:00:00 | |
| OM5KV | 2026-09-02 00:18:10 | 46.21497 | 20.86689 | 46° | 16km/h | 20654m | 4.7m/s | -54.6°C | 1.2% | 53.0hPa | 0V | 00:00:00 | 00:00:00 | 00:00:00 | |
| 9A1FER-10 | 2026-09-02 00:18:06 | 46.21476 | 20.86675 | 17° | 20km/h | 20626m | 4.4m/s | 0°C | 0% | 0hPa | 0V | 00:00:00 | 01:28:44 | 00:00:00 | |
| OM5KV | 2026-09-02 00:18:05 | 46.21471 | 20.86673 | 16° | 22km/h | 20622m | 5.3m/s | -54.4°C | 1.2% | 53.3hPa | 0V | 00:00:00 | 00:00:00 | 00:00:00 | |
| OM5KV | 2026-09-02 00:17:59 | 46.21440 | 20.86653 | 37° | 20km/h | 20590m | 3.9m/s | -54.2°C | 1.2% | 53.5hPa | 0V | 00:00:00 | 00:00:00 | 00:00:00 | |
| OM5KV | 2026-09-02 00:17:52 | 46.21415 | 20.86641 | 12° | 15km/h | 20560m | 4.2m/s | -54.1°C | 1.1% | 53.8hPa | 0V | 00:00:00 | 00:00:00 | 00:00:00 | |
| 9A1FER-10 | 2026-09-02 00:17:50 | 46.21403 | 20.86634 | 24° | 15km/h | 20544m | 4.3m/s | 0°C | 0% | 0hPa | 0V | 00:00:00 | 01:28:28 | 00:00:00 | |
| OM5KV | 2026-09-02 00:17:47 | 46.21388 | 20.86627 | 20° | 22km/h | 20527m | 5.4m/s | -54.1°C | 1.1% | 54.1hPa | 0V | 00:00:00 | 00:00:00 | 00:00:00 | |
| OM5KV | 2026-09-02 00:17:40 | 46.21364 | 20.86615 | 9° | 9km/h | 20494m | 6.3m/s | -54.1°C | 1.1% | 54.4hPa | 0V | 00:00:00 | 00:00:00 | 00:00:00 | |
| LZ4TU-5 | 2026-09-02 00:17:36 | 46.21354 | 20.86614 | 361° | 9km/h | 20470m | 5.3m/s | -54.2°C | 0% | 54.5hPa | 0V | 00:00:00 | 00:00:00 | 00:00:00 | |
| 9A1FER-10 | 2026-09-02 00:17:35 | 46.21348 | 20.86613 | 18° | 15km/h | 20459m | 6.3m/s | 0°C | 0% | 0hPa | 0V | 00:00:00 | 01:28:13 | 00:00:00 | |
| LZ4TU-5 | 2026-09-02 00:17:32 | 46.21341 | 20.86608 | 30° | 16km/h | 20447m | 6.9m/s | -54.3°C | 0% | 54.7hPa | 0V | 00:00:00 | 00:00:00 | 00:00:00 | |
| OM5KV | 2026-09-02 00:17:24 | 46.21321 | 20.86583 | 46° | 7km/h | 20402m | 6.6m/s | -54.7°C | 1.1% | 55.1hPa | 0V | 00:00:00 | 00:00:00 | 00:00:00 | |
| OM5KV | 2026-09-02 00:17:19 | 46.21316 | 20.86572 | 70° | 11km/h | 20375m | 5.3m/s | -55.2°C | 1.2% | 55.4hPa | 0V | 00:00:00 | 00:00:00 | 00:00:00 | |
| OM5KV | 2026-09-02 00:17:13 | 46.21307 | 20.86540 | 65° | 20km/h | 20342m | 6.4m/s | -55.3°C | 1.2% | 55.7hPa | 0V | 00:00:00 | 00:00:00 | 00:00:00 | |
| OM5KV | 2026-09-02 00:17:03 | 46.21283 | 20.86452 | 66° | 31km/h | 20280m | 6.1m/s | -55.7°C | 1.2% | 56.2hPa | 0V | 00:00:00 | 00:00:00 | 00:00:00 | |
| OM5KV | 2026-09-02 00:16:56 | 46.21256 | 20.86394 | 51° | 29km/h | 20246m | 6.6m/s | -55.7°C | 1.2% | 56.5hPa | 0V | 00:00:00 | 00:00:00 | 00:00:00 | |
| OM5KV | 2026-09-02 00:16:51 | 46.21238 | 20.86349 | 71° | 24km/h | 20212m | 4.0m/s | -55.9°C | 1.2% | 56.8hPa | 0V | 00:00:00 | 00:00:00 | 00:00:00 | |
| OM5KV | 2026-09-02 00:16:44 | 46.21214 | 20.86308 | 37° | 31km/h | 20179m | 4.9m/s | -55.9°C | 1.3% | 57.1hPa | 0V | 00:00:00 | 00:00:00 | 00:00:00 | |
| OM5KV | 2026-09-02 00:16:33 | 46.21175 | 20.86244 | 55° | 13km/h | 20119m | 5.4m/s | -56.3°C | 1.2% | 57.7hPa | 0V | 00:00:00 | 00:00:00 | 00:00:00 | |
| OM5KV | 2026-09-02 00:16:27 | 46.21163 | 20.86226 | 71° | 15km/h | 20084m | 5.7m/s | -56.2°C | 1.3% | 58.0hPa | 0V | 00:00:00 | 00:00:00 | 00:00:00 | |
| OM5KV | 2026-09-02 00:16:22 | 46.21156 | 20.86200 | 73° | 13km/h | 20055m | 4.9m/s | -56.1°C | 1.3% | 58.2hPa | 0V | 00:00:00 | 00:00:00 | 00:00:00 | |
| OM5KV | 2026-09-02 00:16:17 | 46.21152 | 20.86183 | 96° | 9km/h | 20029m | 5.5m/s | -56.1°C | 1.3% | 58.5hPa | 0V | 00:00:00 | 00:00:00 | 00:00:00 | |
| OM5KV | 2026-09-02 00:16:11 | 46.21144 | 20.86156 | 65° | 16km/h | 19997m | 5.2m/s | -56.0°C | 1.3% | 58.8hPa | 0V | 00:00:00 | 00:00:00 | 00:00:00 | |
| OM5KV | 2026-09-02 00:15:59 | 46.21128 | 20.86076 | 59° | 26km/h | 19931m | 6.2m/s | -56.0°C | 1.3% | 59.4hPa | 0V | 00:00:00 | 00:00:00 | 00:00:00 | |
| LZ4TU-5 | 2026-09-02 00:15:55 | 46.21110 | 20.86049 | 44° | 24km/h | 19907m | 5.2m/s | -56.0°C | 0% | 59.6hPa | 0V | 00:00:00 | 00:00:00 | 00:00:00 | |
| OM5KV | 2026-09-02 00:15:53 | 46.21101 | 20.86036 | 51° | 26km/h | 19896m | 5.8m/s | -56.2°C | 1.3% | 59.7hPa | 0V | 00:00:00 | 00:00:00 | 00:00:00 | |
| OM5KV | 2026-09-02 00:15:48 | 46.21089 | 20.85995 | 73° | 24km/h | 19869m | 6.0m/s | -56.2°C | 1.3% | 59.9hPa | 0V | 00:00:00 | 00:00:00 | 00:00:00 | |
| OM5KV | 2026-09-02 00:15:43 | 46.21076 | 20.85962 | 42° | 22km/h | 19842m | 6.1m/s | -56.1°C | 1.3% | 60.2hPa | 0V | 00:00:00 | 00:00:00 | 00:00:00 | |
| OM5KV | 2026-09-02 00:15:37 | 46.21054 | 20.85928 | 67° | 24km/h | 19810m | 5.9m/s | -56.1°C | 1.3% | 60.5hPa | 0V | 00:00:00 | 00:00:00 | 00:00:00 | |
| OM5KV | 2026-09-02 00:15:31 | 46.21035 | 20.85900 | 47° | 26km/h | 19777m | 6.5m/s | -56.2°C | 1.3% | 60.8hPa | 0V | 00:00:00 | 00:00:00 | 00:00:00 | |
| OM5KV | 2026-09-02 00:15:19 | 46.20981 | 20.85824 | 42° | 20km/h | 19712m | 4.9m/s | -56.0°C | 1.3% | 61.4hPa | 0V | 00:00:00 | 00:00:00 | 00:00:00 | |
| OM5KV | 2026-09-02 00:15:14 | 46.20962 | 20.85805 | 29° | 18km/h | 19684m | 4.0m/s | -56.0°C | 1.3% | 61.7hPa | 0V | 00:00:00 | 00:00:00 | 00:00:00 | |
| OM5KV | 2026-09-02 00:15:09 | 46.20946 | 20.85792 | 35° | 16km/h | 19657m | 4.9m/s | -56.1°C | 1.3% | 62.0hPa | 0V | 00:00:00 | 00:00:00 | 00:00:00 | |
| OM5KV | 2026-09-02 00:15:03 | 46.20931 | 20.85773 | 40° | 13km/h | 19625m | 5.7m/s | -55.9°C | 1.3% | 62.3hPa | 0V | 00:00:00 | 00:00:00 | 00:00:00 | |
| OM5KV | 2026-09-02 00:14:57 | 46.20918 | 20.85754 | 63° | 15km/h | 19593m | 6.5m/s | -55.9°C | 1.3% | 62.6hPa | 0V | 00:00:00 | 00:00:00 | 00:00:00 | |
| OM5KV | 2026-09-02 00:14:52 | 46.20912 | 20.85725 | 80° | 18km/h | 19567m | 5.3m/s | -55.8°C | 1.3% | 62.9hPa | 0V | 00:00:00 | 00:00:00 | 00:00:00 | |
| OM5KV | 2026-09-02 00:14:46 | 46.20907 | 20.85696 | 58° | 11km/h | 19536m | 5.1m/s | -55.8°C | 1.2% | 63.2hPa | 0V | 00:00:00 | 00:00:00 | 00:00:00 | |
| OM5KV | 2026-09-02 00:14:41 | 46.20904 | 20.85677 | 87° | 13km/h | 19510m | 4.7m/s | -55.9°C | 1.3% | 63.5hPa | 0V | 00:00:00 | 00:00:00 | 00:00:00 | |
| OM5KV | 2026-09-02 00:14:34 | 46.20900 | 20.85631 | 82° | 20km/h | 19475m | 6.3m/s | -55.9°C | 1.3% | 63.8hPa | 0V | 00:00:00 | 00:00:00 | 00:00:00 | |
| OM5KV | 2026-09-02 00:14:28 | 46.20897 | 20.85590 | 91° | 18km/h | 19445m | 6.3m/s | -56.0°C | 1.3% | 64.1hPa | 0V | 00:00:00 | 00:00:00 | 00:00:00 | |
| OM5KV | 2026-09-02 00:14:22 | 46.20893 | 20.85543 | 78° | 27km/h | 19415m | 6.1m/s | -56.4°C | 1.3% | 64.4hPa | 0V | 00:00:00 | 00:00:00 | 00:00:00 | |
| OM5KV | 2026-09-02 00:14:17 | 46.20882 | 20.85495 | 69° | 22km/h | 19388m | 5.8m/s | -56.6°C | 1.3% | 64.7hPa | 0V | 00:00:00 | 00:00:00 | 00:00:00 | |
| OM5KV | 2026-09-02 00:14:11 | 46.20873 | 20.85460 | 80° | 15km/h | 19357m | 4.2m/s | -56.4°C | 1.3% | 65.0hPa | 0V | 00:00:00 | 00:00:00 | 00:00:00 | |
| OM5KV | 2026-09-02 00:14:06 | 46.20866 | 20.85423 | 80° | 24km/h | 19331m | 5.0m/s | -56.2°C | 1.3% | 65.2hPa | 0V | 00:00:00 | 00:00:00 | 00:00:00 | |
| OM5KV | 2026-09-02 00:14:00 | 46.20856 | 20.85373 | 73° | 16km/h | 19302m | 4.4m/s | -56.1°C | 1.3% | 65.5hPa | 0V | 00:00:00 | 00:00:00 | 00:00:00 | |
| OM5KV | 2026-09-02 00:13:54 | 46.20844 | 20.85341 | 67° | 18km/h | 19272m | 4.4m/s | -56.1°C | 1.3% | 65.8hPa | 0V | 00:00:00 | 00:00:00 | 00:00:00 | |
| OM5KV | 2026-09-02 00:13:36 | 46.20795 | 20.85243 | 40° | 18km/h | 19177m | 6.2m/s | -56.6°C | 1.4% | 66.8hPa | 0V | 00:00:00 | 00:00:00 | 00:00:00 | |
| OM5KV | 2026-09-02 00:13:30 | 46.20772 | 20.85222 | 30° | 20km/h | 19145m | 5.2m/s | -56.4°C | 1.4% | 67.2hPa | 0V | 00:00:00 | 00:00:00 | 00:00:00 | |
| OM5KV | 2026-09-02 00:13:24 | 46.20747 | 20.85200 | 23° | 15km/h | 19113m | 4.4m/s | -56.3°C | 1.4% | 67.5hPa | 0V | 00:00:00 | 00:00:00 | 00:00:00 | |
| OM5KV | 2026-09-02 00:13:18 | 46.20734 | 20.85196 | 13° | 7km/h | 19080m | 6.1m/s | -56.2°C | 1.3% | 67.9hPa | 0V | 00:00:00 | 00:00:00 | 00:00:00 | |
| OM5KV | 2026-09-02 00:13:12 | 46.20720 | 20.85186 | 43° | 13km/h | 19045m | 5.3m/s | -55.9°C | 1.3% | 68.2hPa | 0V | 00:00:00 | 00:00:00 | 00:00:00 | |
| OM5KV | 2026-09-02 00:13:06 | 46.20709 | 20.85172 | 80° | 7km/h | 19011m | 5.0m/s | -56.0°C | 1.3% | 68.6hPa | 0V | 00:00:00 | 00:00:00 | 00:00:00 | |
| OM5KV | 2026-09-02 00:13:00 | 46.20704 | 20.85149 | 91° | 13km/h | 18976m | 5.1m/s | -56.0°C | 1.3% | 69.0hPa | 0V | 00:00:00 | 00:00:00 | 00:00:00 | |
| OM5KV | 2026-09-02 00:12:54 | 46.20704 | 20.85117 | 112° | 15km/h | 18943m | 4.9m/s | -56.0°C | 0% | 69.4hPa | 0V | 00:00:00 | 00:00:00 | 00:00:00 | |
| OM5KV | 2026-09-02 00:12:48 | 46.20713 | 20.85082 | 111° | 18km/h | 18909m | 5.3m/s | -56.4°C | 0% | 69.7hPa | 0V | 00:00:00 | 00:00:00 | 00:00:00 | |
| OM5KV | 2026-09-02 00:12:42 | 46.20719 | 20.85052 | 101° | 13km/h | 18877m | 6.1m/s | 0°C | 0% | 70.1hPa | 0V | 00:00:00 | 00:00:00 | 00:00:00 | |
| OM5KV | 2026-09-02 00:12:36 | 46.20724 | 20.85027 | 103° | 7km/h | 18842m | 5.0m/s | 0°C | 0% | 70.5hPa | 0V | 00:00:00 | 00:00:00 | 00:00:00 | |
| OM5KV | 2026-09-02 00:12:24 | 46.20743 | 20.84998 | 128° | 15km/h | 18771m | 6.6m/s | 0°C | 0% | 0hPa | 0V | 00:00:00 | 00:00:00 | 00:00:00 | |
| OM5KV | 2026-09-02 00:12:19 | 46.20750 | 20.84989 | 172° | 7km/h | 18743m | 6.9m/s | 0°C | 0% | 0hPa | 0V | 00:00:00 | 00:00:00 | 00:00:00 | |
| OM5KV | 2026-09-02 00:12:13 | 46.20771 | 20.84976 | 148° | 18km/h | 18709m | 5.6m/s | 0°C | 0% | 0hPa | 0V | 00:00:00 | 00:00:00 | 00:00:00 | |
| LZ4TU-5 | 2026-09-02 00:10:19 | 46.21179 | 20.84071 | 114° | 37km/h | 18121m | 5.0m/s | -55.0°C | 0% | 0hPa | 0V | 00:00:00 | 00:00:00 | 00:00:00 | |
| LZ4TU-5 | 2026-09-02 00:08:35 | 46.21152 | 20.82506 | 93° | 24km/h | 17587m | 6.2m/s | -56.0°C | 0% | 0hPa | 0V | 00:00:00 | 00:00:00 | 00:00:00 | |
| LZ4TU-5 | 2026-09-02 00:08:31 | 46.21151 | 20.82468 | 94° | 31km/h | 17567m | 5.6m/s | -55.9°C | 0% | 0hPa | 0V | 00:00:00 | 00:00:00 | 00:00:00 | |
| LZ4TU-5 | 2026-09-02 00:06:35 | 46.21037 | 20.80442 | 73° | 58km/h | 16974m | 4.8m/s | -56.2°C | 0% | 0hPa | 0V | 00:00:00 | 00:00:00 | 00:00:00 | |
| LZ4TU-5 | 2026-09-02 00:06:30 | 46.21014 | 20.80341 | 71° | 60km/h | 16948m | 5.6m/s | -56.3°C | 0% | 0hPa | 0V | 00:00:00 | 00:00:00 | 00:00:00 | |
| LZ4TU-5 | 2026-09-02 00:04:56 | 46.20803 | 20.78628 | 96° | 38km/h | 16485m | 5.6m/s | -55.9°C | 0% | 0hPa | 0V | 00:00:00 | 00:00:00 | 00:00:00 | |
| LZ4TU-5 | 2026-09-02 00:04:51 | 46.20808 | 20.78558 | 100° | 40km/h | 16461m | 5.7m/s | -55.8°C | 0% | 0hPa | 0V | 00:00:00 | 00:00:00 | 00:00:00 | |
| LZ4TU-5 | 2026-09-02 00:03:22 | 46.21192 | 20.76815 | 96° | 73km/h | 15953m | 4.3m/s | -55.8°C | 0% | 0hPa | 0V | 00:00:00 | 00:00:00 | 00:00:00 | |
| LZ4TU-5 | 2026-09-02 00:03:21 | 46.21201 | 20.76708 | 98° | 75km/h | 15933m | 5.4m/s | -55.8°C | 0% | 0hPa | 0V | 00:00:00 | 00:00:00 | 00:00:00 | |
| LZ4TU-5 | 2026-09-02 00:01:18 | 46.21164 | 20.73516 | 86° | 84km/h | 15378m | 4.2m/s | -57.0°C | 0% | 0hPa | 0V | 00:00:00 | 00:00:00 | 00:00:00 | |
| LZ4TU-5 | 2026-09-02 00:01:14 | 46.21153 | 20.73394 | 83° | 84km/h | 15359m | 4.5m/s | -57.1°C | 0% | 0hPa | 0V | 00:00:00 | 00:00:00 | 00:00:00 | |
| LZ4TU-5 | 2026-09-01 23:58:20 | 46.20373 | 20.68294 | 73° | 93km/h | 14526m | 4.1m/s | -56.9°C | 0% | 0hPa | 0V | 00:00:00 | 00:00:00 | 00:00:00 | |
| LZ4TU-5 | 2026-09-01 23:56:36 | 46.19920 | 20.65053 | 87° | 86km/h | 14011m | 4.3m/s | 0°C | 0% | 0hPa | 0V | 00:00:00 | 00:00:00 | 00:00:00 | |
| LZ4TU-5 | 2026-09-01 23:56:32 | 46.19917 | 20.64927 | 90° | 88km/h | 13994m | 5.0m/s | 0°C | 0% | 0hPa | 0V | 00:00:00 | 00:00:00 | 00:00:00 | |
| LZ4TU-5 | 2026-09-01 23:54:54 | 46.19782 | 20.61463 | 87° | 108km/h | 13548m | 4.1m/s | 0°C | 0% | 0hPa | 0V | 00:00:00 | 00:00:00 | 00:00:00 | |
| LZ4TU-5 | 2026-09-01 23:54:49 | 46.19774 | 20.61270 | 87° | 104km/h | 13524m | 3.4m/s | 0°C | 0% | 0hPa | 0V | 00:00:00 | 00:00:00 | 00:00:00 | |
| LZ4TU-5 | 2026-09-01 23:53:08 | 46.19769 | 20.57300 | 94° | 120km/h | 12962m | 5.1m/s | 0°C | 0% | 0hPa | 0V | 00:00:00 | 00:00:00 | 00:00:00 | |
| LZ4TU-5 | 2026-09-01 23:53:03 | 46.19777 | 20.57075 | 94° | 124km/h | 12934m | 5.1m/s | 0°C | 0% | 0hPa | 0V | 00:00:00 | 00:00:00 | 00:00:00 | |
| LZ4TU-5 | 2026-09-01 23:51:25 | 46.19709 | 20.52817 | 88° | 117km/h | 12423m | 4.2m/s | 0°C | 0% | 0hPa | 0V | 00:00:00 | 00:00:00 | 00:00:00 | |
| LZ4TU-5 | 2026-09-01 23:51:21 | 46.19703 | 20.52602 | 88° | 115km/h | 12397m | 5.6m/s | 0°C | 0% | 0hPa | 0V | 00:00:00 | 00:00:00 | 00:00:00 | |
| LZ4TU-5 | 2026-09-01 23:49:27 | 46.19483 | 20.48295 | 95° | 100km/h | 11830m | 5.6m/s | 0°C | 0% | 0hPa | 0V | 00:00:00 | 00:00:00 | 00:00:00 | |
| LZ4TU-5 | 2026-09-01 23:49:23 | 46.19488 | 20.48155 | 95° | 93km/h | 11811m | 5.5m/s | 0°C | 0% | 0hPa | 0V | 00:00:00 | 00:00:00 | 00:00:00 | |
| LZ4TU-5 | 2026-09-01 23:47:44 | 46.19787 | 20.45098 | 99° | 82km/h | 11249m | 5.7m/s | 0°C | 0% | 0hPa | 0V | 00:00:00 | 00:00:00 | 00:00:00 |